Broadview, Montana
Current Conditions -  °F | °C
As of 12:53 PM on Saturday 20 Dec 2014 (Local Time) from KBIL Reporting Station
Broken Clouds Broken Clouds  
Wind Chill: 29°   Ceiling: 20000
Heat Index: 37°   Visibility: 10mi
Dew Point: 23°   Wind: 12mph
Humidity: 57%   Direction: 230°SW
Pressure: 29.87"   Gusts: NA
Location:  46.1°N, 108.88°W
Report Text: KBIL 201953Z 23010KT 10SM FEW100 SCT150 BKN200 03/M05 A2987 RMK AO2 SLP134 ACSL DSNT N SE T00281050
Loading
Personal Weather Stations






























Interactive Weather Map New forecast layout! Learn more

10-Day Weather Forecast

Advertisements
Track Severe Weather on mobile